createdAt,value
2023-04-18T07:19:01.526Z,18.63
2023-04-18T07:21:29.118Z,20.45
2023-04-18T07:26:13.750Z,23.30
2023-04-18T07:28:41.150Z,16.83
2023-04-18T07:31:11.494Z,14.48
2023-04-18T07:33:39.423Z,21.67
2023-04-18T07:36:07.511Z,17.90
2023-04-18T07:38:37.849Z,18.73
2023-04-18T07:41:05.338Z,16.75
2023-04-18T07:43:32.751Z,18.02
2023-04-18T07:46:00.799Z,17.60
2023-04-18T07:48:28.350Z,18.02
2023-04-18T07:50:55.776Z,16.92
2023-04-18T07:53:23.351Z,15.45
2023-04-18T07:55:51.439Z,17.88
2023-04-18T07:58:18.842Z,21.95
2023-04-18T08:00:46.467Z,18.50
2023-04-18T08:03:14.349Z,16.20
2023-04-18T08:05:43.503Z,18.48
2023-04-18T08:08:12.904Z,16.35
2023-04-18T08:10:40.514Z,16.55
2023-04-18T08:13:08.371Z,15.63
2023-04-18T08:15:36.077Z,15.88
2023-04-18T08:18:03.690Z,19.20
2023-04-18T08:20:31.405Z,18.83
2023-04-18T08:23:07.560Z,16.40
2023-04-18T08:25:37.554Z,16.60
2023-04-18T08:28:05.491Z,17.35
2023-04-18T08:30:32.978Z,17.92
2023-04-18T08:33:01.229Z,17.90
2023-04-18T08:35:28.755Z,17.80
2023-04-18T08:37:56.159Z,17.90
2023-04-18T08:40:24.060Z,18.50
2023-04-18T08:42:56.288Z,17.02
2023-04-18T08:45:24.455Z,17.00
2023-04-18T08:47:52.303Z,21.05
2023-04-18T08:50:20.065Z,19.63
2023-04-18T08:52:50.574Z,17.63
2023-04-18T08:55:19.256Z,15.80
2023-04-18T08:57:47.587Z,17.80
2023-04-18T09:00:18.091Z,17.02
2023-04-18T09:02:47.101Z,15.50
2023-04-18T09:05:21.241Z,14.93
2023-04-18T09:07:53.105Z,14.38
2023-04-18T09:10:34.911Z,17.20
2023-04-18T09:13:04.508Z,15.82
2023-04-18T09:15:32.527Z,16.27
2023-04-18T09:18:04.894Z,14.60
2023-04-18T09:20:42.585Z,16.98
2023-04-18T09:23:16.477Z,16.58
2023-04-18T09:25:51.026Z,16.00
2023-04-18T09:28:33.475Z,15.00
2023-04-18T09:31:13.047Z,14.43
2023-04-18T09:33:54.286Z,17.15
2023-04-18T09:36:27.852Z,13.52
2023-04-18T09:38:57.186Z,14.93
2023-04-18T09:41:24.736Z,13.73
2023-04-18T09:44:17.129Z,12.05
2023-04-18T09:46:47.607Z,13.63
2023-04-18T09:49:16.920Z,14.07
2023-04-18T09:51:46.310Z,15.70
2023-04-18T09:54:18.505Z,13.38
2023-04-18T09:56:50.658Z,14.13
2023-04-18T09:59:49.328Z,14.68
2023-04-18T10:02:24.626Z,14.60
2023-04-18T10:04:54.318Z,15.00
2023-04-18T10:07:22.781Z,13.65
2023-04-18T10:09:50.759Z,14.75
2023-04-18T10:12:18.740Z,14.73
2023-04-18T10:14:46.513Z,14.63
2023-04-18T10:17:16.192Z,15.98
2023-04-18T10:19:46.136Z,16.50
2023-04-18T10:22:13.538Z,14.75
2023-04-18T10:24:56.355Z,12.65
2023-04-18T10:27:48.719Z,13.13
2023-04-18T10:30:18.046Z,12.77
2023-04-18T10:32:48.506Z,11.63
2023-04-18T10:37:59.090Z,13.15
2023-04-18T10:40:36.065Z,13.60
2023-04-18T10:43:03.468Z,12.13
2023-04-18T10:45:36.357Z,13.20
2023-04-18T10:48:30.359Z,12.45
2023-04-18T10:51:21.094Z,12.23
2023-04-18T10:56:28.062Z,11.90
2023-04-18T10:58:59.277Z,13.52
2023-04-18T11:01:33.174Z,12.70
2023-04-18T11:04:01.604Z,14.27
2023-04-18T11:06:30.444Z,13.85
2023-04-18T11:09:14.607Z,12.73
2023-04-18T11:11:43.576Z,13.70
2023-04-18T11:14:11.631Z,12.88
2023-04-18T11:16:40.621Z,11.80
2023-04-18T11:19:26.608Z,11.68
2023-04-18T11:22:01.162Z,13.65
2023-04-18T11:24:29.211Z,11.63
2023-04-18T11:26:57.161Z,13.43
2023-04-18T11:29:24.585Z,12.70
2023-04-18T11:31:56.697Z,14.32
2023-04-18T11:34:31.476Z,11.95
2023-04-18T11:36:59.203Z,12.00
2023-04-18T11:39:26.682Z,12.25
2023-04-18T11:41:56.519Z,12.27
2023-04-18T11:44:25.623Z,14.18
2023-04-18T11:46:54.265Z,11.02
2023-04-18T11:49:34.386Z,12.70
2023-04-18T11:52:10.992Z,13.60
2023-04-18T11:54:45.529Z,13.45
2023-04-18T11:57:30.485Z,15.00
2023-04-18T12:00:00.980Z,11.80
2023-04-18T12:05:38.902Z,12.75
2023-04-18T12:08:21.092Z,12.50
2023-04-18T12:10:54.619Z,13.68
2023-04-18T12:13:33.361Z,12.30
2023-04-18T12:16:02.808Z,13.80
2023-04-18T12:18:31.556Z,12.68
2023-04-18T12:21:02.043Z,12.60
2023-04-18T12:26:18.291Z,14.00
2023-04-18T12:28:50.436Z,16.23
2023-04-18T12:31:18.184Z,14.00
2023-04-18T12:33:45.645Z,10.82
2023-04-18T12:36:13.158Z,11.63
2023-04-18T12:38:40.701Z,12.05
2023-04-18T12:41:08.301Z,12.00
2023-04-18T12:43:35.705Z,9.85
2023-04-18T12:46:03.128Z,11.43
2023-04-18T12:48:30.571Z,12.70
2023-04-18T12:50:57.988Z,16.00
2023-04-18T12:53:25.732Z,11.45
2023-04-18T12:55:53.220Z,13.35
2023-04-18T12:58:20.897Z,12.35
2023-04-18T13:00:48.321Z,12.25
2023-04-18T13:03:15.981Z,14.63
2023-04-18T13:05:43.689Z,12.48
2023-04-18T13:08:17.246Z,9.80
2023-04-18T13:10:47.751Z,11.07
2023-04-18T13:13:15.602Z,14.20
2023-04-18T13:15:43.279Z,10.65
2023-04-18T13:18:10.684Z,11.93
2023-04-18T13:20:38.092Z,10.43
2023-04-18T13:23:05.541Z,11.48
2023-04-18T13:25:33.023Z,9.73
2023-04-18T13:28:01.150Z,12.52
2023-04-18T13:30:29.448Z,10.57
2023-04-18T13:32:57.001Z,10.73
2023-04-18T13:35:24.503Z,11.52
2023-04-18T13:37:51.899Z,11.82
2023-04-18T13:40:19.325Z,10.13
2023-04-18T13:42:46.751Z,11.30
2023-04-18T13:45:14.198Z,10.38
2023-04-18T13:47:41.651Z,10.90
2023-04-18T13:50:10.174Z,11.10
2023-04-18T13:52:37.644Z,10.75
2023-04-18T13:55:06.032Z,12.15
2023-04-18T13:57:34.414Z,12.13
2023-04-18T14:00:01.900Z,11.73
2023-04-18T14:02:29.492Z,9.95
2023-04-18T14:04:58.323Z,13.38
2023-04-18T14:07:25.914Z,11.13
2023-04-18T14:09:54.037Z,13.07
2023-04-18T14:12:21.903Z,10.00
2023-04-18T14:14:49.319Z,9.38
2023-04-18T14:17:16.746Z,11.77
2023-04-18T14:19:44.168Z,10.23
2023-04-18T14:22:12.171Z,11.93
2023-04-18T14:24:39.627Z,11.48
2023-04-18T14:27:07.078Z,12.60
2023-04-18T14:29:34.484Z,12.40
2023-04-18T14:32:03.554Z,11.65
2023-04-18T14:34:33.136Z,11.52
2023-04-18T14:39:28.956Z,11.68
2023-04-18T14:41:57.696Z,10.77
2023-04-18T14:44:25.134Z,12.32
2023-04-18T14:46:52.578Z,12.20
2023-04-18T14:49:20.075Z,12.07
2023-04-18T14:51:47.787Z,11.85
2023-04-18T14:54:15.193Z,11.57
2023-04-18T14:56:42.698Z,12.43
2023-04-18T14:59:10.274Z,10.55
2023-04-18T15:01:37.706Z,10.82
2023-04-18T15:04:06.148Z,9.93
2023-04-18T15:06:33.903Z,11.25
2023-04-18T15:09:01.394Z,10.95
2023-04-18T15:11:28.854Z,10.45
2023-04-18T15:13:57.114Z,10.05
2023-04-18T15:16:24.521Z,10.80
2023-04-18T15:18:51.931Z,11.63
2023-04-18T15:21:19.419Z,13.43
2023-04-18T15:23:46.810Z,11.45
2023-04-18T15:26:14.302Z,10.98
2023-04-18T15:28:41.679Z,11.52
2023-04-18T15:31:09.755Z,11.25
2023-04-18T15:33:37.985Z,11.10
2023-04-18T15:36:05.991Z,13.38
2023-04-18T15:38:33.457Z,12.38
2023-04-18T15:41:00.919Z,12.57
2023-04-18T15:43:28.430Z,11.98
2023-04-18T15:45:55.887Z,14.27
2023-04-18T15:48:23.317Z,12.23
2023-04-18T15:50:52.475Z,11.45
2023-04-18T15:53:20.153Z,10.38
2023-04-18T15:55:47.944Z,15.50
2023-04-18T15:58:15.385Z,11.27
2023-04-18T16:00:44.043Z,11.77
2023-04-18T16:03:12.229Z,10.93
2023-04-18T16:05:39.835Z,11.05
2023-04-18T16:08:08.995Z,11.00
2023-04-18T16:10:37.936Z,14.68
2023-04-18T16:13:06.813Z,12.30
2023-04-18T16:15:41.585Z,14.73
2023-04-18T16:18:09.341Z,12.88
2023-04-18T16:20:36.984Z,13.35
2023-04-18T16:23:04.391Z,13.63
2023-04-18T16:25:31.877Z,12.73
2023-04-18T16:27:59.281Z,12.02
2023-04-18T16:30:26.663Z,11.82
2023-04-18T16:32:54.476Z,15.82
2023-04-18T16:35:23.017Z,14.15
2023-04-18T16:37:50.397Z,13.23
2023-04-18T16:40:17.769Z,13.68
2023-04-18T16:42:45.436Z,14.57
2023-04-18T16:45:12.872Z,13.05
2023-04-18T16:47:40.352Z,13.30
2023-04-18T16:50:08.941Z,12.85
2023-04-18T16:52:36.357Z,13.02
2023-04-18T16:55:03.832Z,14.23
2023-04-18T16:57:31.484Z,12.68
2023-04-18T17:00:02.230Z,13.68
2023-04-18T17:02:31.906Z,14.77
2023-04-18T17:05:00.149Z,13.07
2023-04-18T17:07:27.626Z,16.23
2023-04-18T17:09:55.050Z,13.32
2023-04-18T17:12:22.415Z,14.65
2023-04-18T17:14:49.802Z,14.70
2023-04-18T17:17:17.191Z,13.45
2023-04-18T17:19:44.569Z,13.63
2023-04-18T17:22:12.226Z,14.15
2023-04-18T17:24:39.602Z,14.38
2023-04-18T17:27:06.981Z,12.55
2023-04-18T17:29:34.446Z,14.32
2023-04-18T17:32:01.903Z,14.27
2023-04-18T17:34:29.408Z,13.98
2023-04-18T17:36:57.654Z,12.93
2023-04-18T17:39:25.089Z,12.77
2023-04-18T17:41:53.042Z,13.68
2023-04-18T17:44:20.830Z,17.02
2023-04-18T17:46:49.985Z,13.32
2023-04-18T17:49:18.032Z,13.25
2023-04-18T17:51:45.711Z,15.70
2023-04-18T17:54:14.160Z,13.32
2023-04-18T17:56:41.744Z,13.75
2023-04-18T17:59:09.918Z,13.50
2023-04-18T18:01:37.903Z,12.55
2023-04-18T18:04:05.512Z,14.25
2023-04-18T18:06:33.040Z,14.65
2023-04-18T18:09:00.451Z,15.00
2023-04-18T18:11:27.871Z,11.95
2023-04-18T18:13:57.370Z,15.15
2023-04-18T18:16:25.008Z,15.20
2023-04-18T18:18:52.567Z,12.85
2023-04-18T18:21:19.979Z,13.95
2023-04-18T18:23:47.371Z,16.20
2023-04-18T18:26:14.819Z,14.02
2023-04-18T18:28:42.181Z,14.00
2023-04-18T18:31:09.674Z,14.75
2023-04-18T18:33:37.153Z,15.23
2023-04-18T18:36:05.632Z,15.10
2023-04-18T18:38:33.109Z,14.07
2023-04-18T18:41:03.595Z,12.38
2023-04-18T18:43:32.106Z,12.68
2023-04-18T18:45:59.744Z,11.35
2023-04-18T18:48:30.397Z,14.77
2023-04-18T18:50:58.367Z,12.18
2023-04-18T18:53:25.854Z,11.70
2023-04-18T18:55:53.279Z,13.52
2023-04-18T18:58:20.821Z,11.88
2023-04-18T19:00:48.259Z,13.00
2023-04-18T19:03:19.163Z,14.07
2023-04-18T19:05:47.355Z,12.57
2023-04-18T19:08:15.019Z,14.68
2023-04-18T19:10:42.702Z,11.98
2023-04-18T19:13:10.480Z,12.15
2023-04-18T19:15:38.032Z,15.48
2023-04-18T19:18:05.842Z,15.25
2023-04-18T19:20:33.249Z,12.95
2023-04-18T19:23:00.726Z,14.68
2023-04-18T19:25:28.181Z,12.70
2023-04-18T19:27:55.610Z,14.32
2023-04-18T19:30:23.155Z,12.48
2023-04-18T19:32:50.687Z,14.10
2023-04-18T19:35:18.219Z,14.02
2023-04-18T19:37:45.607Z,12.50
2023-04-18T19:40:14.343Z,15.45
2023-04-18T19:42:41.814Z,14.02
2023-04-18T19:45:12.026Z,16.67
2023-04-18T19:47:39.460Z,12.68
2023-04-18T19:50:08.740Z,13.07
2023-04-18T19:52:36.513Z,13.90
2023-04-18T19:55:04.032Z,13.40
2023-04-18T19:57:31.549Z,13.98
2023-04-18T19:59:58.958Z,19.42
2023-04-18T20:02:26.696Z,14.32
2023-04-18T20:04:54.304Z,14.52
2023-04-18T20:07:23.148Z,18.42
2023-04-18T20:09:54.985Z,13.38
2023-04-18T20:12:23.642Z,13.18
2023-04-18T20:14:52.018Z,13.23
2023-04-18T20:17:19.468Z,15.07
2023-04-18T20:19:49.732Z,12.25
2023-04-18T20:22:18.804Z,16.60
2023-04-18T20:24:46.319Z,12.00
2023-04-18T20:27:14.001Z,13.52
2023-04-18T20:29:41.438Z,15.07
2023-04-18T20:32:08.894Z,16.00
2023-04-18T20:34:36.300Z,12.93
2023-04-18T20:37:07.351Z,12.15
2023-04-18T20:39:34.868Z,11.82
2023-04-18T20:42:04.409Z,13.15
2023-04-18T20:44:34.483Z,12.02
2023-04-18T20:47:02.383Z,14.23
2023-04-18T20:49:30.007Z,14.40
2023-04-18T20:51:57.405Z,13.98
2023-04-18T20:54:24.890Z,13.00
2023-04-18T20:56:52.281Z,15.30
2023-04-18T20:59:19.788Z,13.50
2023-04-18T21:01:47.212Z,13.10
2023-04-18T21:04:14.890Z,14.43
2023-04-18T21:06:42.894Z,13.35
2023-04-18T21:09:10.498Z,12.68
2023-04-18T21:11:37.880Z,14.13
2023-04-18T21:14:06.749Z,13.95
2023-04-18T21:16:34.557Z,13.52
2023-04-18T21:19:02.038Z,13.18
2023-04-18T21:21:30.060Z,13.82
2023-04-18T21:23:57.485Z,12.95
2023-04-18T21:26:24.868Z,15.25
2023-04-18T21:29:02.832Z,17.45
2023-04-18T21:31:34.492Z,16.73
2023-04-18T21:34:05.438Z,17.27
2023-04-18T21:36:33.167Z,14.45
2023-04-18T21:39:01.443Z,13.40
2023-04-18T21:41:29.164Z,14.98
2023-04-18T21:43:56.843Z,11.98
2023-04-18T21:46:24.918Z,13.10
2023-04-18T21:48:52.427Z,13.35
2023-04-18T21:51:19.829Z,14.70
2023-04-18T21:53:47.277Z,12.43
2023-04-18T21:56:14.732Z,11.57
2023-04-18T21:58:42.358Z,12.23
2023-04-18T22:01:09.810Z,9.30
2023-04-18T22:03:37.956Z,12.93
2023-04-18T22:06:05.966Z,7.45
2023-04-18T22:08:33.939Z,7.30
2023-04-18T22:11:01.697Z,7.07
2023-04-18T22:13:35.782Z,8.88
2023-04-18T22:16:04.048Z,7.22
2023-04-18T22:18:34.038Z,5.88
2023-04-18T22:21:03.483Z,5.82
2023-04-18T22:23:31.448Z,6.53
2023-04-18T22:25:58.943Z,6.47
2023-04-18T22:28:28.553Z,5.45
2023-04-18T22:30:56.337Z,6.33
2023-04-18T22:33:24.129Z,7.35
2023-04-18T22:35:51.855Z,6.72
2023-04-18T22:38:19.316Z,7.40
2023-04-18T22:40:46.823Z,7.22
2023-04-18T22:43:14.391Z,10.00
2023-04-18T22:45:42.026Z,11.30
2023-04-18T22:48:12.288Z,12.93
2023-04-18T22:50:42.988Z,13.15
2023-04-18T22:53:11.654Z,10.25
2023-04-18T22:55:44.404Z,11.88
2023-04-18T22:58:12.160Z,11.57
2023-04-18T23:00:39.754Z,15.32
2023-04-18T23:03:07.375Z,10.18
2023-04-18T23:05:35.456Z,12.00
2023-04-18T23:08:03.039Z,10.88
2023-04-18T23:10:30.554Z,12.48
2023-04-18T23:12:57.944Z,11.85
2023-04-18T23:15:27.011Z,11.38
2023-04-18T23:17:54.727Z,9.55
2023-04-18T23:20:24.104Z,8.88
2023-04-18T23:22:51.995Z,8.70
2023-04-18T23:25:20.042Z,9.13
2023-04-18T23:27:47.966Z,9.18
2023-04-18T23:30:15.629Z,10.48
2023-04-18T23:32:43.172Z,9.98
